createdAt,value
2023-05-16T00:01:42.096Z,100.00
2023-05-16T00:04:48.517Z,100.00
2023-05-16T00:07:54.246Z,100.00
2023-05-16T00:11:00.402Z,100.00
2023-05-16T00:14:06.011Z,100.00
2023-05-16T00:17:12.491Z,100.00
2023-05-16T00:20:19.216Z,100.00
2023-05-16T00:23:25.199Z,100.00
2023-05-16T00:26:30.416Z,100.00
2023-05-16T00:29:36.290Z,100.00
2023-05-16T00:32:41.620Z,100.00
2023-05-16T00:35:46.932Z,100.00
2023-05-16T00:38:52.266Z,100.00
2023-05-16T00:41:59.787Z,100.00
2023-05-16T00:45:06.584Z,100.00
2023-05-16T00:48:14.506Z,100.00
2023-05-16T00:51:20.465Z,100.00
2023-05-16T00:54:29.604Z,100.00
2023-05-16T00:57:36.220Z,100.00
2023-05-16T01:00:42.105Z,100.00
2023-05-16T01:03:48.656Z,100.00
2023-05-16T01:06:55.709Z,100.00
2023-05-16T01:10:02.223Z,100.00
2023-05-16T01:13:23.396Z,100.00
2023-05-16T01:16:38.971Z,100.00
2023-05-16T01:19:52.012Z,100.00
2023-05-16T01:23:25.392Z,100.00
2023-05-16T01:26:32.944Z,100.00
2023-05-16T01:29:39.486Z,100.00
2023-05-16T01:32:45.429Z,100.00
2023-05-16T01:36:14.895Z,100.00
2023-05-16T01:39:23.048Z,100.00
2023-05-16T01:42:34.243Z,100.00
2023-05-16T01:45:47.978Z,100.00
2023-05-16T01:49:08.064Z,100.00
2023-05-16T01:52:18.938Z,100.00
2023-05-16T01:55:35.080Z,100.00
2023-05-16T01:58:41.958Z,100.00
2023-05-16T02:01:47.620Z,100.00
2023-05-16T02:04:53.481Z,100.00
2023-05-16T02:08:00.601Z,100.00
2023-05-16T02:11:06.487Z,100.00
2023-05-16T02:14:12.524Z,100.00
2023-05-16T02:17:18.718Z,100.00
2023-05-16T02:20:24.779Z,100.00
2023-05-16T02:23:30.154Z,100.00
2023-05-16T02:26:35.944Z,100.00
2023-05-16T02:29:41.182Z,100.00
2023-05-16T02:32:46.877Z,100.00
2023-05-16T02:35:52.498Z,100.00
2023-05-16T02:38:58.391Z,100.00
2023-05-16T02:42:05.026Z,100.00
2023-05-16T02:45:11.564Z,100.00
2023-05-16T02:48:17.315Z,100.00
2023-05-16T02:51:26.374Z,100.00
2023-05-16T02:54:32.262Z,100.00
2023-05-16T02:57:38.461Z,100.00
2023-05-16T03:00:44.425Z,100.00
2023-05-16T03:03:50.451Z,100.00
2023-05-16T03:06:56.607Z,100.00
2023-05-16T03:10:02.395Z,100.00
2023-05-16T03:13:08.395Z,100.00
2023-05-16T03:16:15.082Z,100.00
2023-05-16T03:19:20.953Z,100.00
2023-05-16T03:22:26.613Z,100.00
2023-05-16T03:25:33.096Z,100.00
2023-05-16T03:28:39.089Z,100.00
2023-05-16T03:31:44.785Z,100.00
2023-05-16T03:34:50.202Z,100.00
2023-05-16T03:37:56.081Z,100.00
2023-05-16T03:41:02.560Z,100.00
2023-05-16T03:44:08.531Z,100.00
2023-05-16T03:47:14.654Z,100.00
2023-05-16T03:50:20.497Z,100.00
2023-05-16T03:53:28.082Z,100.00
2023-05-16T03:56:33.863Z,100.00
2023-05-16T03:59:40.167Z,100.00
2023-05-16T04:02:46.821Z,100.00
2023-05-16T04:05:53.037Z,100.00
2023-05-16T04:08:58.647Z,100.00
2023-05-16T04:12:04.527Z,100.00
2023-05-16T04:15:10.677Z,100.00
2023-05-16T04:18:16.028Z,100.00
2023-05-16T04:21:21.662Z,100.00
2023-05-16T04:24:29.228Z,100.00
2023-05-16T04:27:34.705Z,100.00
2023-05-16T04:30:40.909Z,100.00
2023-05-16T04:33:47.209Z,100.00
2023-05-16T04:36:53.012Z,100.00
2023-05-16T04:39:59.324Z,100.00
2023-05-16T04:43:05.465Z,100.00
2023-05-16T04:46:11.108Z,100.00
2023-05-16T04:49:16.497Z,100.00
2023-05-16T04:52:21.810Z,100.00
2023-05-16T04:55:27.765Z,100.00
2023-05-16T04:58:33.703Z,100.00
2023-05-16T05:01:39.915Z,100.00
2023-05-16T05:04:45.841Z,100.00
2023-05-16T05:07:51.380Z,100.00
2023-05-16T05:10:57.226Z,100.00
2023-05-16T05:14:03.021Z,100.00
2023-05-16T05:17:08.604Z,100.00
2023-05-16T05:20:14.045Z,100.00
2023-05-16T05:23:21.030Z,100.00
2023-05-16T05:26:26.608Z,100.00
2023-05-16T05:29:32.315Z,100.00
2023-05-16T05:32:38.370Z,100.00
2023-05-16T05:35:43.951Z,100.00
2023-05-16T05:38:49.739Z,100.00
2023-05-16T05:41:55.229Z,100.00
2023-05-16T05:45:00.202Z,100.00
2023-05-16T05:48:06.064Z,100.00
2023-05-16T05:51:14.428Z,100.00
2023-05-16T05:54:20.430Z,100.00
2023-05-16T05:57:25.688Z,100.00
2023-05-16T06:00:31.582Z,100.00
2023-05-16T06:03:37.121Z,100.00
2023-05-16T06:06:42.630Z,100.00
2023-05-16T06:09:48.012Z,100.00
2023-05-16T06:12:53.737Z,100.00
2023-05-16T06:15:59.217Z,100.00
2023-05-16T06:19:04.926Z,100.00
2023-05-16T06:22:10.450Z,100.00
2023-05-16T06:25:16.272Z,100.00
2023-05-16T06:28:22.171Z,100.00
2023-05-16T06:31:27.954Z,100.00
2023-05-16T06:34:33.927Z,100.00
2023-05-16T06:37:42.573Z,100.00
2023-05-16T06:40:49.475Z,100.00
2023-05-16T06:43:55.164Z,100.00
2023-05-16T06:47:00.990Z,100.00
2023-05-16T06:50:07.645Z,100.00
2023-05-16T06:53:13.158Z,100.00
2023-05-16T06:56:18.830Z,100.00
2023-05-16T06:59:25.179Z,100.00
2023-05-16T07:02:32.364Z,100.00
2023-05-16T07:05:38.355Z,100.00
2023-05-16T07:08:43.713Z,100.00
2023-05-16T07:11:49.637Z,100.00
2023-05-16T07:14:55.193Z,100.00
2023-05-16T07:18:01.276Z,100.00
2023-05-16T07:21:07.392Z,100.00
2023-05-16T07:24:12.936Z,100.00
2023-05-16T07:27:22.741Z,100.00
2023-05-16T07:30:29.838Z,100.00
2023-05-16T07:33:35.324Z,100.00
2023-05-16T07:36:41.468Z,100.00
2023-05-16T07:39:47.071Z,100.00
2023-05-16T07:42:52.660Z,100.00
2023-05-16T07:45:58.565Z,100.00
2023-05-16T07:49:05.443Z,100.00
2023-05-16T07:52:11.219Z,100.00
2023-05-16T07:55:17.297Z,100.00
2023-05-16T07:58:22.965Z,100.00
2023-05-16T08:01:28.323Z,100.00
2023-05-16T08:04:33.972Z,100.00
2023-05-16T08:07:39.500Z,100.00
2023-05-16T08:10:45.772Z,100.00
2023-05-16T08:13:51.536Z,100.00
2023-05-16T08:16:58.700Z,100.00
2023-05-16T08:20:04.675Z,100.00
2023-05-16T08:23:10.388Z,100.00
2023-05-16T08:26:18.187Z,100.00
2023-05-16T08:29:24.500Z,100.00
2023-05-16T08:32:30.090Z,100.00
2023-05-16T08:35:35.828Z,100.00
2023-05-16T08:38:41.412Z,100.00
2023-05-16T08:41:47.009Z,100.00
2023-05-16T08:44:52.533Z,100.00
2023-05-16T08:48:01.128Z,100.00
2023-05-16T08:51:08.273Z,100.00
2023-05-16T08:54:15.897Z,100.00
2023-05-16T08:57:22.192Z,100.00
2023-05-16T09:00:28.743Z,100.00
2023-05-16T09:03:36.482Z,100.00
2023-05-16T09:06:41.990Z,100.00
2023-05-16T09:09:47.587Z,100.00
2023-05-16T09:12:53.317Z,100.00
2023-05-16T09:16:17.255Z,100.00
2023-05-16T09:19:23.755Z,100.00
2023-05-16T09:22:29.975Z,100.00
2023-05-16T09:25:35.700Z,100.00
2023-05-16T09:28:41.705Z,100.00
2023-05-16T09:31:47.279Z,100.00
2023-05-16T09:34:54.832Z,100.00
2023-05-16T09:38:00.416Z,100.00
2023-05-16T09:41:06.178Z,100.00
2023-05-16T09:44:12.616Z,100.00
2023-05-16T09:47:19.456Z,100.00
2023-05-16T09:50:25.423Z,100.00
2023-05-16T09:53:32.820Z,100.00
2023-05-16T09:56:51.812Z,100.00
2023-05-16T10:00:01.737Z,100.00
2023-05-16T10:03:09.006Z,100.00
2023-05-16T10:06:16.842Z,100.00
2023-05-16T10:09:23.549Z,100.00
2023-05-16T10:12:33.910Z,100.00
2023-05-16T10:15:40.042Z,100.00
2023-05-16T10:18:45.878Z,100.00
2023-05-16T10:21:59.616Z,100.00
2023-05-16T10:25:14.258Z,100.00
2023-05-16T10:28:20.126Z,100.00
2023-05-16T10:31:26.079Z,100.00
2023-05-16T10:34:31.818Z,100.00
2023-05-16T10:37:38.330Z,100.00
2023-05-16T10:40:45.600Z,100.00
2023-05-16T10:44:00.415Z,100.00
2023-05-16T10:47:06.348Z,100.00
2023-05-16T10:50:12.027Z,100.00
2023-05-16T10:53:29.239Z,100.00
2023-05-16T10:56:35.658Z,100.00
2023-05-16T10:59:46.828Z,100.00
2023-05-16T11:02:52.396Z,100.00
2023-05-16T11:06:01.902Z,100.00
2023-05-16T11:09:16.274Z,100.00
2023-05-16T11:12:21.790Z,100.00
2023-05-16T11:15:31.789Z,100.00
2023-05-16T11:18:51.911Z,100.00
2023-05-16T11:22:18.100Z,100.00
2023-05-16T11:25:39.905Z,100.00
2023-05-16T11:28:50.721Z,100.00
2023-05-16T11:31:56.894Z,100.00
2023-05-16T11:35:04.271Z,100.00
2023-05-16T11:38:19.301Z,100.00
2023-05-16T11:41:24.575Z,100.00
2023-05-16T11:44:30.071Z,100.00
2023-05-16T11:47:44.743Z,100.00
2023-05-16T11:50:50.515Z,100.00
2023-05-16T11:53:55.759Z,100.00
2023-05-16T11:57:02.427Z,100.00
2023-05-16T12:00:25.434Z,100.00
2023-05-16T12:03:34.048Z,100.00
2023-05-16T12:06:40.806Z,100.00
2023-05-16T12:09:54.283Z,100.00
2023-05-16T12:13:16.796Z,100.00
2023-05-16T12:16:35.970Z,100.00
2023-05-16T12:19:46.965Z,100.00
2023-05-16T12:22:52.804Z,100.00
2023-05-16T12:25:58.526Z,100.00
2023-05-16T12:29:05.980Z,100.00
2023-05-16T12:32:17.649Z,100.00
2023-05-16T12:35:23.522Z,100.00
2023-05-16T12:38:29.539Z,100.00
2023-05-16T12:41:42.620Z,100.00
2023-05-16T12:44:48.249Z,100.00
2023-05-16T12:47:54.011Z,100.00
2023-05-16T12:51:14.240Z,100.00
2023-05-16T12:54:21.207Z,100.00
2023-05-16T12:57:27.123Z,100.00
2023-05-16T13:00:32.749Z,100.00
2023-05-16T13:03:38.495Z,100.00
2023-05-16T13:06:56.540Z,100.00
2023-05-16T13:10:04.860Z,100.00
2023-05-16T13:13:10.268Z,100.00
2023-05-16T13:16:16.801Z,100.00
2023-05-16T13:19:24.595Z,97.35
2023-05-16T13:22:30.215Z,100.00
2023-05-16T13:25:37.509Z,100.00
2023-05-16T13:28:43.113Z,100.00
2023-05-16T13:31:49.025Z,92.91
2023-05-16T13:34:54.895Z,86.57
2023-05-16T13:38:01.048Z,85.94
2023-05-16T13:41:06.883Z,87.21
2023-05-16T13:44:13.367Z,82.06
2023-05-16T13:47:19.017Z,91.40
2023-05-16T13:50:24.401Z,90.15
2023-05-16T13:53:29.906Z,85.77
2023-05-16T13:56:35.348Z,82.72
2023-05-16T14:02:49.915Z,75.29
2023-05-16T14:05:55.966Z,73.81
2023-05-16T14:09:02.129Z,77.71
2023-05-16T14:12:08.121Z,75.41
2023-05-16T14:15:13.722Z,80.44
2023-05-16T14:18:19.205Z,77.35
2023-05-16T14:21:25.254Z,79.04
2023-05-16T14:24:31.289Z,81.75
2023-05-16T14:27:36.868Z,73.85
2023-05-16T14:30:42.685Z,82.62
2023-05-16T14:33:48.558Z,82.72
2023-05-16T14:36:54.116Z,83.14
2023-05-16T14:40:01.216Z,71.76
2023-05-16T14:43:10.098Z,73.46
2023-05-16T14:46:15.725Z,75.22
2023-05-16T14:49:21.592Z,72.81
2023-05-16T14:52:27.237Z,71.63
2023-05-16T14:55:33.444Z,73.63
2023-05-16T14:58:38.725Z,73.89
2023-05-16T15:01:44.327Z,74.19
2023-05-16T15:04:50.532Z,78.39
2023-05-16T15:07:56.160Z,73.34
2023-05-16T15:11:02.158Z,76.02
2023-05-16T15:14:07.785Z,76.62
2023-05-16T15:17:13.455Z,67.68
2023-05-16T15:20:21.111Z,70.02
2023-05-16T15:23:28.340Z,73.62
2023-05-16T15:26:33.997Z,73.37
2023-05-16T15:29:39.978Z,70.89
2023-05-16T15:32:45.853Z,68.77
2023-05-16T15:35:52.170Z,68.39
2023-05-16T15:38:58.203Z,66.43
2023-05-16T15:42:11.137Z,66.84
2023-05-16T15:45:17.587Z,71.37
2023-05-16T15:48:23.484Z,69.73
2023-05-16T15:51:29.490Z,69.61
2023-05-16T15:54:36.792Z,72.21
2023-05-16T15:57:44.153Z,73.28
2023-05-16T16:00:50.118Z,73.01
2023-05-16T16:03:56.030Z,69.20
2023-05-16T16:07:02.063Z,69.53
2023-05-16T16:10:09.328Z,70.91
2023-05-16T16:13:15.569Z,72.26
2023-05-16T16:16:21.036Z,70.89
2023-05-16T16:19:27.004Z,71.74
2023-05-16T16:22:32.223Z,75.49
2023-05-16T16:25:37.664Z,81.65
2023-05-16T16:28:43.413Z,85.23
2023-05-16T16:31:48.758Z,95.22
2023-05-16T16:34:54.872Z,99.30
2023-05-16T16:38:06.690Z,100.00
2023-05-16T16:41:14.878Z,100.00
2023-05-16T16:44:21.197Z,100.00
2023-05-16T16:47:26.981Z,100.00
2023-05-16T16:50:34.282Z,100.00
2023-05-16T16:53:41.562Z,100.00
2023-05-16T16:56:48.010Z,100.00
2023-05-16T16:59:53.516Z,100.00
2023-05-16T17:02:59.212Z,100.00
2023-05-16T17:06:05.269Z,100.00
2023-05-16T17:09:14.405Z,100.00
2023-05-16T17:12:20.767Z,100.00
2023-05-16T17:15:26.692Z,100.00
2023-05-16T17:18:34.757Z,100.00
2023-05-16T17:21:40.975Z,100.00
2023-05-16T17:24:46.559Z,100.00
2023-05-16T17:27:52.245Z,100.00
2023-05-16T17:30:58.016Z,100.00
2023-05-16T17:34:03.572Z,100.00
2023-05-16T17:37:10.844Z,100.00
2023-05-16T17:40:18.142Z,100.00
2023-05-16T17:43:23.771Z,100.00
2023-05-16T17:46:29.246Z,100.00
2023-05-16T17:49:35.638Z,100.00
2023-05-16T17:52:41.343Z,100.00
2023-05-16T17:55:47.096Z,100.00
2023-05-16T17:58:53.721Z,100.00
2023-05-16T18:01:59.386Z,100.00
2023-05-16T18:05:05.157Z,100.00
2023-05-16T18:08:11.166Z,100.00
2023-05-16T18:11:16.737Z,100.00
2023-05-16T18:14:22.270Z,100.00
2023-05-16T18:17:28.074Z,100.00
2023-05-16T18:20:34.783Z,100.00
2023-05-16T18:23:40.881Z,100.00
2023-05-16T18:26:48.660Z,100.00
2023-05-16T18:29:55.328Z,100.00
2023-05-16T18:33:01.778Z,100.00
2023-05-16T18:36:08.572Z,100.00
2023-05-16T18:39:14.035Z,100.00
2023-05-16T18:42:19.555Z,100.00
2023-05-16T18:45:24.945Z,100.00
2023-05-16T18:48:29.891Z,100.00
2023-05-16T18:51:35.130Z,100.00
2023-05-16T18:54:40.507Z,100.00
2023-05-16T18:57:46.317Z,100.00
2023-05-16T19:00:52.132Z,100.00
2023-05-16T19:03:57.990Z,100.00
2023-05-16T19:07:04.752Z,100.00
2023-05-16T19:10:12.082Z,100.00
2023-05-16T19:13:18.252Z,100.00
2023-05-16T19:16:23.625Z,100.00
2023-05-16T19:19:30.223Z,100.00
2023-05-16T19:22:36.387Z,100.00
2023-05-16T19:25:47.435Z,100.00
2023-05-16T19:28:52.829Z,100.00
2023-05-16T19:31:58.281Z,100.00
2023-05-16T19:35:05.740Z,100.00
2023-05-16T19:38:11.213Z,100.00
2023-05-16T19:41:17.210Z,100.00
2023-05-16T19:44:22.744Z,100.00
2023-05-16T19:47:28.662Z,100.00
2023-05-16T19:50:34.697Z,100.00
2023-05-16T19:53:41.372Z,100.00
2023-05-16T19:56:47.163Z,100.00
2023-05-16T19:59:52.791Z,100.00
2023-05-16T20:02:58.514Z,100.00
2023-05-16T20:06:05.182Z,100.00
2023-05-16T20:09:11.549Z,100.00
2023-05-16T20:12:17.407Z,100.00
2023-05-16T20:15:23.249Z,100.00
2023-05-16T20:18:28.960Z,100.00
2023-05-16T20:21:34.575Z,100.00
2023-05-16T20:24:40.549Z,100.00
2023-05-16T20:27:46.000Z,100.00
2023-05-16T20:30:51.721Z,100.00
2023-05-16T20:33:57.212Z,100.00
2023-05-16T20:37:03.022Z,100.00
2023-05-16T20:40:10.176Z,100.00
2023-05-16T20:43:16.058Z,100.00
2023-05-16T20:46:22.138Z,100.00
2023-05-16T20:49:28.309Z,100.00
2023-05-16T20:52:34.008Z,100.00
2023-05-16T20:55:39.904Z,100.00
2023-05-16T20:58:45.612Z,100.00
2023-05-16T21:01:51.986Z,100.00
2023-05-16T21:04:59.314Z,100.00
2023-05-16T21:08:07.811Z,100.00
2023-05-16T21:11:13.170Z,100.00
2023-05-16T21:14:18.648Z,100.00
2023-05-16T21:17:24.660Z,100.00
2023-05-16T21:20:30.489Z,100.00
2023-05-16T21:23:36.306Z,100.00
2023-05-16T21:26:41.808Z,100.00
2023-05-16T21:29:47.568Z,100.00
2023-05-16T21:32:53.276Z,100.00
2023-05-16T21:36:00.618Z,100.00
2023-05-16T21:39:06.256Z,100.00
2023-05-16T21:42:11.509Z,100.00
2023-05-16T21:45:17.299Z,100.00
2023-05-16T21:48:23.113Z,100.00
2023-05-16T21:51:29.160Z,100.00
2023-05-16T21:54:35.084Z,100.00
2023-05-16T21:57:40.339Z,100.00
2023-05-16T22:00:46.245Z,100.00
2023-05-16T22:03:54.635Z,100.00
2023-05-16T22:06:59.871Z,100.00
2023-05-16T22:10:06.131Z,100.00
2023-05-16T22:13:11.739Z,100.00
2023-05-16T22:16:16.935Z,100.00
2023-05-16T22:19:22.769Z,100.00
2023-05-16T22:22:28.821Z,100.00
2023-05-16T22:25:34.391Z,100.00
2023-05-16T22:28:39.753Z,100.00
2023-05-16T22:31:45.507Z,100.00
2023-05-16T22:34:51.034Z,100.00
2023-05-16T22:37:56.555Z,100.00
2023-05-16T22:41:01.769Z,100.00
2023-05-16T22:44:07.155Z,100.00
2023-05-16T22:47:13.184Z,100.00
2023-05-16T22:50:20.695Z,100.00
2023-05-16T22:53:27.200Z,100.00
2023-05-16T22:56:34.209Z,100.00
2023-05-16T22:59:40.235Z,100.00
2023-05-16T23:02:47.350Z,100.00
2023-05-16T23:05:54.608Z,100.00
2023-05-16T23:09:02.910Z,100.00
2023-05-16T23:12:10.308Z,100.00
2023-05-16T23:15:17.127Z,100.00
2023-05-16T23:18:24.528Z,100.00
2023-05-16T23:21:32.034Z,100.00
2023-05-16T23:24:39.346Z,100.00
2023-05-16T23:27:45.494Z,100.00
2023-05-16T23:30:52.297Z,100.00
2023-05-16T23:33:59.293Z,100.00
2023-05-16T23:37:06.884Z,100.00
2023-05-16T23:40:13.399Z,100.00
2023-05-16T23:43:22.123Z,100.00
2023-05-16T23:46:28.973Z,100.00
2023-05-16T23:49:37.878Z,100.00
2023-05-16T23:52:45.860Z,100.00
2023-05-16T23:55:53.550Z,100.00
2023-05-16T23:59:01.268Z,100.00
